Time;durP1;ratioP1;P1;durP2;ratioP2;P2;SDS_P1;SDS_P2;PMS_P1;PMS_P2;Temp;Humidity;BMP_temperature;BMP_pressure;BME280_temperature;BME280_humidity;BME280_pressure;Samples;Min_cycle;Max_cycle;Signal;HPM_P1;HPM_P2
2022/01/19 00:01:42;;;;;;;79.20;31.30;;;3.10;99.90;;;;;;4845605;29;37128;-74
2022/01/19 00:04:09;;;;;;;70.93;30.37;;;3.00;99.90;;;;;;4847569;29;36205;-74
2022/01/19 00:06:35;;;;;;;73.47;29.67;;;3.00;99.90;;;;;;4849795;29;38859;-74
2022/01/19 00:09:01;;;;;;;71.20;31.43;;;3.00;99.90;;;;;;4845209;29;38811;-74
2022/01/19 00:11:27;;;;;;;66.83;29.17;;;2.90;99.90;;;;;;4844159;29;46559;-74
2022/01/19 00:13:53;;;;;;;89.53;33.53;;;2.90;99.90;;;;;;4843236;29;36822;-74
2022/01/19 00:16:20;;;;;;;78.90;31.70;;;2.80;99.90;;;;;;4840623;29;39464;-74
2022/01/19 00:18:47;;;;;;;69.23;29.13;;;2.70;99.90;;;;;;4841815;29;38819;-74
2022/01/19 00:21:13;;;;;;;68.63;28.20;;;2.60;99.90;;;;;;4859254;28;38216;-74
2022/01/19 00:23:40;;;;;;;76.47;30.83;;;2.60;99.90;;;;;;4846995;29;38895;-75
2022/01/19 00:26:06;;;;;;;61.43;28.50;;;2.60;99.90;;;;;;4844967;29;37519;-74
2022/01/19 00:28:32;;;;;;;60.17;28.57;;;2.60;99.90;;;;;;4847608;29;38741;-74
2022/01/19 00:30:58;;;;;;;62.90;28.03;;;2.50;99.90;;;;;;4844321;29;39315;-74
2022/01/19 00:33:24;;;;;;;81.27;31.63;;;2.60;99.90;;;;;;4846508;29;38887;-74
2022/01/19 00:35:51;;;;;;;80.37;29.00;;;2.60;99.90;;;;;;4846817;29;38579;-75
2022/01/19 00:38:18;;;;;;;65.23;28.27;;;2.60;99.90;;;;;;4846506;29;39596;-75
2022/01/19 00:40:46;;;;;;;70.10;28.70;;;2.60;99.90;;;;;;4845330;28;39333;-74
2022/01/19 00:43:12;;;;;;;65.17;27.57;;;2.60;99.90;;;;;;4844351;29;37292;-74
2022/01/19 00:45:39;;;;;;;74.73;31.47;;;2.60;99.90;;;;;;4859755;29;39035;-75
2022/01/19 00:48:05;;;;;;;85.23;34.87;;;2.60;99.90;;;;;;4844249;29;38847;-74
2022/01/19 00:50:31;;;;;;;83.83;33.23;;;2.80;99.90;;;;;;4843676;29;38179;-73
2022/01/19 00:52:57;;;;;;;79.10;32.03;;;2.80;99.90;;;;;;4856503;29;37568;-73
2022/01/19 00:55:25;;;;;;;65.47;30.30;;;2.80;99.90;;;;;;4842547;29;39896;-75
2022/01/19 00:57:52;;;;;;;67.10;31.10;;;2.90;99.90;;;;;;4842182;29;38282;-74
2022/01/19 01:00:23;;;;;;;78.83;32.23;;;2.90;99.90;;;;;;4845135;29;38607;-74
2022/01/19 01:02:49;;;;;;;63.27;28.67;;;2.90;99.90;;;;;;4843505;29;38233;-75
2022/01/19 01:05:15;;;;;;;59.87;28.30;;;3.00;99.90;;;;;;4843591;29;37334;-74
2022/01/19 01:07:41;;;;;;;83.57;32.17;;;3.00;99.90;;;;;;4844937;29;37242;-74
2022/01/19 01:10:15;;;;;;;90.67;32.87;;;3.10;99.90;;;;;;4842055;29;39582;-74
2022/01/19 01:12:50;;;;;;;85.90;34.07;;;3.20;99.90;;;;;;4841250;29;37335;-74
2022/01/19 01:15:28;;;;;;;80.63;32.60;;;3.30;99.90;;;;;;4844987;29;39470;-74
2022/01/19 01:20:37;;;;;;;95.40;35.53;;;3.50;99.90;;;;;;4848248;29;49163;-74
2022/01/19 01:23:05;;;;;;;114.93;38.27;;;3.60;99.90;;;;;;4843957;29;37477;-73
2022/01/19 01:25:31;;;;;;;81.13;33.53;;;3.70;99.90;;;;;;4848217;29;39092;-75
2022/01/19 01:27:57;;;;;;;128.40;42.40;;;3.90;99.90;;;;;;4841972;29;39485;-75
2022/01/19 01:30:23;;;;;;;99.43;36.57;;;4.30;99.90;;;;;;4841239;29;39239;-75
2022/01/19 01:32:50;;;;;;;100.87;42.20;;;4.40;99.90;;;;;;4842415;29;38467;-76
2022/01/19 01:35:16;;;;;;;105.50;39.23;;;4.40;99.90;;;;;;4842047;29;38248;-74
2022/01/19 01:37:42;;;;;;;106.47;40.00;;;4.50;99.90;;;;;;4848729;29;39811;-74
2022/01/19 01:40:12;;;;;;;105.10;40.67;;;4.70;99.90;;;;;;4842285;29;38804;-74
2022/01/19 01:42:39;;;;;;;109.87;41.57;;;4.70;99.90;;;;;;4845740;29;37215;-74
2022/01/19 01:45:11;;;;;;;100.53;39.53;;;4.90;99.90;;;;;;4842509;28;39187;-74
2022/01/19 01:47:43;;;;;;;98.80;40.70;;;4.90;99.90;;;;;;4846107;29;39209;-75
2022/01/19 01:55:24;;;;;;;103.00;41.40;;;5.10;99.90;;;;;;4843236;28;38934;-75
2022/01/19 01:57:51;;;;;;;97.00;40.33;;;5.20;99.90;;;;;;4842472;29;39614;-75
2022/01/19 02:00:24;;;;;;;116.13;43.53;;;5.40;99.90;;;;;;4839183;29;38740;-75
2022/01/19 02:02:50;;;;;;;114.13;44.13;;;5.50;99.90;;;;;;4847002;29;37890;-75
2022/01/19 02:05:17;;;;;;;105.00;43.80;;;5.60;99.90;;;;;;4841906;29;38340;-75
2022/01/19 02:08:06;;;;;;;104.90;41.47;;;5.70;99.90;;;;;;4843879;29;38675;-75
2022/01/19 02:21:57;;;;;;;100.03;40.20;;;6.10;99.90;;;;;;4840972;29;40788;-75
2022/01/19 02:24:29;;;;;;;95.13;39.93;;;6.10;99.90;;;;;;4840775;29;37250;-75
2022/01/19 02:28:59;;;;;;;100.80;41.53;;;6.20;99.90;;;;;;4843532;28;39522;-75
2022/01/19 02:30:33;;;;;;;99.33;39.67;;;6.30;99.90;;;;;;4843137;29;48702;-74
2022/01/19 02:41:01;;;;;;;112.00;44.90;;;6.40;99.90;;;;;;4845551;29;39544;-74
2022/01/19 02:43:29;;;;;;;92.73;42.43;;;6.20;99.90;;;;;;4840066;29;37532;-76
2022/01/19 02:51:24;;;;;;;125.17;46.27;;;6.00;99.90;;;;;;4841552;29;40514;-77
2022/01/19 02:53:51;;;;;;;135.63;45.67;;;6.00;99.90;;;;;;4855802;29;38835;-76
2022/01/19 02:56:26;;;;;;;119.13;43.40;;;6.00;99.90;;;;;;4847103;29;37690;-76
2022/01/19 02:58:58;;;;;;;109.80;43.30;;;6.00;99.90;;;;;;4841765;29;37872;-77
2022/01/19 03:09:24;;;;;;;140.63;50.17;;;6.00;99.90;;;;;;4844751;29;39558;-77
2022/01/19 03:11:50;;;;;;;102.00;43.37;;;6.00;99.90;;;;;;4835026;29;39277;-76
2022/01/19 03:14:17;;;;;;;127.70;46.77;;;6.00;99.90;;;;;;4843229;29;39393;-77
2022/01/19 03:16:45;;;;;;;93.53;42.67;;;6.10;99.90;;;;;;4842980;29;37763;-77
2022/01/19 03:19:11;;;;;;;103.53;43.47;;;6.10;99.90;;;;;;4841159;29;39935;-78
2022/01/19 03:21:39;;;;;;;97.93;43.10;;;6.10;99.90;;;;;;4848516;29;37840;-77
2022/01/19 03:24:07;;;;;;;107.33;44.10;;;6.10;99.90;;;;;;4841330;29;39288;-76
2022/01/19 03:26:34;;;;;;;90.97;41.70;;;6.20;99.90;;;;;;4844418;29;36262;-77
2022/01/19 03:29:00;;;;;;;103.53;43.50;;;6.20;99.90;;;;;;4840804;29;39378;-77
2022/01/19 03:31:26;;;;;;;94.27;42.50;;;6.30;99.90;;;;;;4839999;29;38620;-78
2022/01/19 03:33:52;;;;;;;104.63;44.00;;;6.40;99.90;;;;;;4849963;29;39507;-77
2022/01/19 03:36:18;;;;;;;116.13;49.50;;;6.40;99.90;;;;;;4844559;29;38353;-77
2022/01/19 03:38:44;;;;;;;107.17;43.37;;;6.40;99.90;;;;;;4846202;29;37713;-77
2022/01/19 03:41:11;;;;;;;99.33;45.37;;;6.40;99.90;;;;;;4844085;29;39460;-77
2022/01/19 03:43:37;;;;;;;93.23;42.97;;;6.40;99.90;;;;;;4842834;29;38495;-77
2022/01/19 03:46:12;;;;;;;101.17;45.50;;;6.40;99.90;;;;;;4843687;29;36490;-76
2022/01/19 03:48:52;;;;;;;91.77;41.03;;;6.40;99.90;;;;;;4848781;29;38700;-77
2022/01/19 03:51:19;;;;;;;86.27;42.30;;;6.30;99.90;;;;;;4844500;29;38694;-77
2022/01/19 03:53:45;;;;;;;94.30;44.50;;;6.30;99.90;;;;;;4844178;29;38304;-77
2022/01/19 03:56:11;;;;;;;99.63;43.23;;;6.30;99.90;;;;;;4844338;29;37449;-77
2022/01/19 03:58:38;;;;;;;115.63;46.50;;;6.30;99.90;;;;;;4846184;29;39887;-77
2022/01/19 04:01:05;;;;;;;117.70;47.40;;;6.30;99.90;;;;;;4844333;29;40297;-76
2022/01/19 04:06:18;;;;;;;103.68;42.42;;;6.20;99.90;;;;;;4846919;29;37605;-76
2022/01/19 04:08:44;;;;;;;112.00;44.33;;;6.20;99.90;;;;;;4846918;29;39741;-77
2022/01/19 04:11:10;;;;;;;98.83;43.53;;;6.20;99.90;;;;;;4843545;29;37871;-76
2022/01/19 04:14:21;;;;;;;107.67;46.23;;;6.20;99.90;;;;;;4843208;29;37156;-76
2022/01/19 04:16:32;;;;;;;110.63;45.23;;;6.30;99.90;;;;;;4842201;29;48945;-77
2022/01/19 04:19:15;;;;;;;105.80;44.80;;;6.20;99.90;;;;;;4848805;29;40643;-77
2022/01/19 04:21:41;;;;;;;97.53;42.90;;;6.20;99.90;;;;;;4842451;29;47177;-77
2022/01/19 04:24:07;;;;;;;141.10;50.20;;;6.20;99.90;;;;;;4846451;29;38563;-77
2022/01/19 04:26:33;;;;;;;98.57;43.03;;;6.20;99.90;;;;;;4847008;29;38020;-77
2022/01/19 04:29:00;;;;;;;110.60;44.90;;;6.20;99.90;;;;;;4842313;29;38546;-77
2022/01/19 04:31:26;;;;;;;97.30;42.10;;;6.20;99.90;;;;;;4843513;29;37855;-77
2022/01/19 04:33:52;;;;;;;90.10;40.93;;;6.20;99.90;;;;;;4859915;29;39154;-77
2022/01/19 04:36:33;;;;;;;116.07;45.83;;;6.20;99.90;;;;;;4842986;29;37911;-76
2022/01/19 04:44:38;;;;;;;90.40;40.67;;;6.20;99.90;;;;;;4844177;29;49437;-76
2022/01/19 05:03:23;;;;;;;106.53;44.10;;;6.10;99.90;;;;;;4840593;29;40340;-76
2022/01/19 05:06:06;;;;;;;93.23;43.13;;;6.10;99.90;;;;;;4848506;29;38755;-76
2022/01/19 05:08:57;;;;;;;121.50;47.13;;;6.00;99.90;;;;;;4840770;29;47699;-76
2022/01/19 05:14:16;;;;;;;95.50;42.03;;;6.00;99.90;;;;;;4856783;29;40546;-77
2022/01/19 05:16:42;;;;;;;99.73;44.60;;;6.00;99.90;;;;;;4842816;29;38475;-77
2022/01/19 05:19:09;;;;;;;92.73;42.30;;;6.00;99.90;;;;;;4847229;29;35517;-76
2022/01/19 05:21:35;;;;;;;98.20;44.07;;;6.00;99.90;;;;;;4843275;29;37647;-76
2022/01/19 05:24:04;;;;;;;99.30;42.27;;;6.00;99.90;;;;;;4843220;29;38869;-77
2022/01/19 05:26:31;;;;;;;87.83;41.23;;;6.10;99.90;;;;;;4840692;29;47351;-77
2022/01/19 05:28:58;;;;;;;102.40;44.63;;;6.00;99.90;;;;;;4859883;29;37726;-76
2022/01/19 05:31:25;;;;;;;96.93;42.00;;;6.00;99.90;;;;;;4844937;29;39498;-76
2022/01/19 05:33:51;;;;;;;131.70;47.57;;;6.00;99.90;;;;;;4846679;29;38479;-76
2022/01/19 05:36:17;;;;;;;120.13;47.87;;;6.00;99.90;;;;;;4844424;29;38806;-76
2022/01/19 05:38:43;;;;;;;112.27;46.43;;;6.00;99.90;;;;;;4841520;29;36899;-76
2022/01/19 05:41:09;;;;;;;80.67;39.83;;;6.00;99.90;;;;;;4843239;29;37723;-77
2022/01/19 05:43:35;;;;;;;93.67;42.10;;;6.00;99.90;;;;;;4846297;29;38647;-76
2022/01/19 05:46:01;;;;;;;105.57;43.83;;;6.00;99.90;;;;;;4840676;29;39228;-75
2022/01/19 05:48:27;;;;;;;119.07;45.93;;;6.00;99.90;;;;;;4843685;29;36281;-76
2022/01/19 05:50:53;;;;;;;99.40;42.87;;;6.00;99.90;;;;;;4856196;29;38094;-76
2022/01/19 05:53:19;;;;;;;94.80;40.50;;;6.00;99.90;;;;;;4856125;29;37767;-76
2022/01/19 05:55:46;;;;;;;91.43;43.40;;;6.00;99.90;;;;;;4842499;29;40242;-76
2022/01/19 05:58:12;;;;;;;96.93;40.33;;;6.00;99.90;;;;;;4842691;29;37657;-76
2022/01/19 06:00:38;;;;;;;105.13;44.27;;;6.00;99.90;;;;;;4843487;29;38842;-76
2022/01/19 06:03:04;;;;;;;87.87;38.27;;;5.90;99.90;;;;;;4843293;29;39188;-76
2022/01/19 06:05:32;;;;;;;121.03;46.63;;;5.90;99.90;;;;;;4843327;29;40287;-76
2022/01/19 06:08:18;;;;;;;103.10;43.60;;;5.90;99.90;;;;;;4837829;29;36552;-76
2022/01/19 06:10:45;;;;;;;89.90;40.97;;;5.90;99.90;;;;;;4839196;29;47255;-76
2022/01/19 06:13:14;;;;;;;74.67;36.87;;;6.00;99.90;;;;;;4839610;29;38556;-76
2022/01/19 06:15:40;;;;;;;85.30;38.67;;;6.00;99.90;;;;;;4840810;29;38958;-76
2022/01/19 06:18:07;;;;;;;82.67;38.60;;;5.90;99.90;;;;;;4841719;29;38660;-76
2022/01/19 06:20:33;;;;;;;88.20;40.03;;;5.90;99.90;;;;;;4836531;29;40821;-76
2022/01/19 06:22:59;;;;;;;93.43;41.70;;;5.90;99.90;;;;;;4841885;29;39670;-76
2022/01/19 06:25:25;;;;;;;107.13;45.10;;;5.90;99.90;;;;;;4841835;29;38567;-77
2022/01/19 06:27:51;;;;;;;106.93;43.27;;;5.90;99.90;;;;;;4838598;29;36300;-76
2022/01/19 06:30:17;;;;;;;84.53;37.90;;;5.90;99.90;;;;;;4843986;29;37457;-76
2022/01/19 06:32:43;;;;;;;93.83;42.87;;;5.90;99.90;;;;;;4847268;29;38789;-76
2022/01/19 06:35:09;;;;;;;131.33;47.10;;;5.90;99.90;;;;;;4840191;29;39390;-76
2022/01/19 06:37:36;;;;;;;86.00;38.93;;;6.00;99.90;;;;;;4842603;29;37504;-76
2022/01/19 06:40:09;;;;;;;91.83;40.00;;;5.90;99.90;;;;;;4840595;29;39718;-76
2022/01/19 06:42:36;;;;;;;93.10;40.87;;;6.00;99.90;;;;;;4856559;29;47309;-76
2022/01/19 06:45:04;;;;;;;109.97;44.43;;;5.90;99.90;;;;;;4841696;29;38507;-75
2022/01/19 06:47:31;;;;;;;83.07;40.37;;;6.00;99.90;;;;;;4835390;29;47418;-76
2022/01/19 06:49:58;;;;;;;109.03;45.93;;;6.00;99.90;;;;;;4843200;29;20183;-76
2022/01/19 06:52:25;;;;;;;92.17;40.50;;;6.00;99.90;;;;;;4837199;29;39171;-76
2022/01/19 06:54:51;;;;;;;85.83;38.57;;;6.00;99.90;;;;;;4837967;29;38637;-77
2022/01/19 06:57:17;;;;;;;85.83;39.40;;;6.00;99.90;;;;;;4843360;29;37209;-76
2022/01/19 06:59:43;;;;;;;91.97;39.77;;;6.00;99.90;;;;;;4843481;29;38410;-76
2022/01/19 07:02:10;;;;;;;100.80;42.63;;;6.00;99.90;;;;;;4854681;29;39495;-76
2022/01/19 07:04:36;;;;;;;77.30;37.83;;;6.10;99.90;;;;;;4842661;29;39980;-76
2022/01/19 07:07:03;;;;;;;78.83;37.03;;;6.10;99.90;;;;;;4842359;29;37512;-76
2022/01/19 07:09:29;;;;;;;76.27;35.83;;;6.10;99.90;;;;;;4845777;29;40062;-77
2022/01/19 07:11:56;;;;;;;83.47;37.97;;;6.10;99.90;;;;;;4845416;29;39995;-76
2022/01/19 07:14:22;;;;;;;75.83;35.90;;;6.10;99.90;;;;;;4846155;29;38995;-76
2022/01/19 07:16:48;;;;;;;95.87;42.30;;;6.10;99.90;;;;;;4848483;29;37883;-76
2022/01/19 07:19:14;;;;;;;83.37;38.10;;;6.10;99.90;;;;;;4860286;29;38826;-76
2022/01/19 07:21:40;;;;;;;79.87;38.17;;;6.10;99.90;;;;;;4847284;28;38633;-76
2022/01/19 07:24:07;;;;;;;76.70;40.67;;;6.10;99.90;;;;;;4844113;29;38741;-76
2022/01/19 07:26:33;;;;;;;88.23;40.57;;;6.20;99.90;;;;;;4847797;29;37883;-76
2022/01/19 07:28:59;;;;;;;79.03;39.27;;;6.10;99.90;;;;;;4839535;29;40299;-77
2022/01/19 07:31:25;;;;;;;88.20;40.67;;;6.10;99.90;;;;;;4854048;29;37966;-77
2022/01/19 07:33:51;;;;;;;83.57;40.70;;;6.20;99.90;;;;;;4848217;29;38463;-77
2022/01/19 07:36:17;;;;;;;91.67;42.57;;;6.20;99.90;;;;;;4840695;28;38104;-77
2022/01/19 07:38:43;;;;;;;79.63;40.93;;;6.20;99.90;;;;;;4848616;29;38999;-77
2022/01/19 07:41:09;;;;;;;76.50;39.03;;;6.20;99.90;;;;;;4843305;29;40022;-77
2022/01/19 07:43:37;;;;;;;72.40;40.67;;;6.20;99.90;;;;;;4850121;29;39753;-77
2022/01/19 07:46:03;;;;;;;88.77;46.13;;;6.30;99.90;;;;;;4846116;29;37652;-77
2022/01/19 07:48:30;;;;;;;87.20;43.77;;;6.30;99.90;;;;;;4853997;29;38565;-77
2022/01/19 07:50:56;;;;;;;78.77;41.90;;;6.30;99.90;;;;;;4848697;29;38830;-77
2022/01/19 07:53:22;;;;;;;81.50;42.83;;;6.30;99.90;;;;;;4843813;29;38773;-77
2022/01/19 07:55:49;;;;;;;86.10;45.30;;;6.40;99.90;;;;;;4843130;29;38195;-77
2022/01/19 07:58:16;;;;;;;89.00;44.30;;;6.40;99.90;;;;;;4853700;29;39725;-77
2022/01/19 08:00:42;;;;;;;79.33;41.60;;;6.40;99.90;;;;;;4850276;29;38671;-77
2022/01/19 08:03:11;;;;;;;78.23;42.40;;;6.40;99.90;;;;;;4850552;29;39319;-77
2022/01/19 08:05:37;;;;;;;90.97;45.00;;;6.40;99.90;;;;;;4849688;29;37530;-77
2022/01/19 08:08:04;;;;;;;83.60;45.23;;;6.40;99.90;;;;;;4852561;29;39482;-76
2022/01/19 08:10:30;;;;;;;88.30;45.80;;;6.40;99.90;;;;;;4854518;29;39622;-77
2022/01/19 08:12:59;;;;;;;83.00;44.70;;;6.40;99.90;;;;;;4848299;29;38696;-77
2022/01/19 08:15:26;;;;;;;80.27;43.57;;;6.40;99.90;;;;;;4844815;29;37687;-77
2022/01/19 08:17:52;;;;;;;81.07;44.20;;;6.40;99.90;;;;;;4847512;29;39291;-77
2022/01/19 08:20:18;;;;;;;81.60;44.47;;;6.40;99.90;;;;;;4844524;29;39765;-77
2022/01/19 08:22:45;;;;;;;78.57;43.53;;;6.40;99.90;;;;;;4848604;29;38784;-77
2022/01/19 08:25:11;;;;;;;81.00;42.10;;;6.40;99.90;;;;;;4847520;29;37833;-77
2022/01/19 08:27:38;;;;;;;77.27;40.37;;;6.40;99.90;;;;;;4841360;29;38797;-77
2022/01/19 08:30:06;;;;;;;75.83;39.17;;;6.40;99.90;;;;;;4843516;29;38663;-77
2022/01/19 08:32:35;;;;;;;74.20;38.23;;;6.40;99.90;;;;;;4844561;29;47593;-77
2022/01/19 08:35:03;;;;;;;78.90;38.57;;;6.40;99.90;;;;;;4845109;29;37533;-77
2022/01/19 08:37:29;;;;;;;81.57;39.20;;;6.30;99.90;;;;;;4848213;29;47127;-78
2022/01/19 08:39:55;;;;;;;77.37;36.87;;;6.30;99.90;;;;;;4844658;29;38777;-76
2022/01/19 08:42:22;;;;;;;71.03;35.23;;;6.30;99.90;;;;;;4843890;29;38479;-77
2022/01/19 08:44:48;;;;;;;68.10;34.60;;;6.20;99.90;;;;;;4848497;29;37557;-78
2022/01/19 08:47:14;;;;;;;69.40;35.73;;;6.20;99.90;;;;;;4855853;29;39447;-78
2022/01/19 08:49:40;;;;;;;70.93;35.20;;;6.20;99.90;;;;;;4847820;29;39706;-76
2022/01/19 08:52:06;;;;;;;61.93;32.63;;;6.10;99.90;;;;;;4848778;28;39558;-77
2022/01/19 08:54:33;;;;;;;66.23;33.57;;;6.10;99.90;;;;;;4846350;29;37482;-78
2022/01/19 08:57:04;;;;;;;69.90;36.33;;;6.10;99.90;;;;;;4844406;29;39823;-77
2022/01/19 08:59:31;;;;;;;68.83;36.80;;;6.10;99.90;;;;;;4857359;29;46838;-77
2022/01/19 09:01:58;;;;;;;67.67;34.57;;;6.10;99.90;;;;;;4845870;29;39184;-77
2022/01/19 09:04:25;;;;;;;68.80;34.43;;;6.10;99.90;;;;;;4846512;29;38840;-77
2022/01/19 09:06:53;;;;;;;73.03;36.73;;;6.10;99.90;;;;;;4847315;29;38533;-76
2022/01/19 09:09:20;;;;;;;72.60;36.40;;;6.10;99.90;;;;;;4846141;29;38993;-76
2022/01/19 09:11:47;;;;;;;67.37;37.20;;;6.10;99.90;;;;;;4856715;29;38721;-77
2022/01/19 09:14:13;;;;;;;69.60;35.33;;;6.10;99.90;;;;;;4847294;29;37802;-74
2022/01/19 09:16:40;;;;;;;68.73;35.83;;;6.10;99.90;;;;;;4845304;29;39237;-74
2022/01/19 09:19:07;;;;;;;71.30;35.57;;;6.10;99.90;;;;;;4845101;29;37974;-75
2022/01/19 09:21:34;;;;;;;69.93;36.83;;;6.10;99.90;;;;;;4845411;29;39557;-76
2022/01/19 09:24:00;;;;;;;74.83;37.03;;;6.10;99.90;;;;;;4844485;29;38239;-76
2022/01/19 09:26:29;;;;;;;68.23;37.37;;;6.10;99.90;;;;;;4842227;29;38791;-76
2022/01/19 09:28:55;;;;;;;68.93;35.80;;;6.10;99.90;;;;;;4858463;29;38849;-76
2022/01/19 09:31:21;;;;;;;73.17;37.53;;;6.10;99.90;;;;;;4845094;29;39202;-75
2022/01/19 09:33:55;;;;;;;86.30;38.17;;;6.10;99.90;;;;;;4858555;29;36409;-75
2022/01/19 09:36:35;;;;;;;73.73;38.30;;;6.10;99.90;;;;;;4844466;29;40034;-76
2022/01/19 09:39:04;;;;;;;75.83;38.30;;;6.10;99.90;;;;;;4846603;29;38833;-75
2022/01/19 09:41:31;;;;;;;69.90;35.50;;;6.10;99.90;;;;;;4843031;29;48412;-75
2022/01/19 09:43:57;;;;;;;69.93;37.97;;;6.10;99.90;;;;;;4844830;29;37336;-75
2022/01/19 09:46:24;;;;;;;70.70;37.27;;;6.10;99.90;;;;;;4845153;29;39331;-77
2022/01/19 09:48:50;;;;;;;73.53;39.10;;;6.10;99.90;;;;;;4843302;29;39543;-77
2022/01/19 09:51:17;;;;;;;73.23;37.87;;;6.10;99.90;;;;;;4843279;29;39112;-75
2022/01/19 09:53:43;;;;;;;71.27;36.70;;;6.10;99.90;;;;;;4859811;29;38498;-75
2022/01/19 09:56:09;;;;;;;86.33;38.93;;;6.10;99.90;;;;;;4844642;29;37898;-75
2022/01/19 09:58:35;;;;;;;76.53;41.43;;;6.10;99.90;;;;;;4841891;29;40162;-76
2022/01/19 10:01:02;;;;;;;70.33;39.13;;;6.10;99.90;;;;;;4843800;29;38293;-75
2022/01/19 10:03:30;;;;;;;73.20;39.27;;;6.10;99.90;;;;;;4853368;29;37791;-75
2022/01/19 10:06:02;;;;;;;76.83;40.43;;;6.10;99.90;;;;;;4847628;29;41822;-76
2022/01/19 10:08:40;;;;;;;67.83;37.60;;;6.20;99.90;;;;;;4847470;29;47371;-75
2022/01/19 10:11:21;;;;;;;74.93;39.43;;;6.20;99.90;;;;;;4846125;29;37336;-77
2022/01/19 10:16:59;;;;;;;63.87;37.17;;;6.20;99.90;;;;;;4844353;29;49029;-77
2022/01/19 10:19:33;;;;;;;66.17;37.03;;;6.20;99.90;;;;;;4859494;29;38084;-77
2022/01/19 10:22:17;;;;;;;66.33;37.93;;;6.20;99.90;;;;;;4863547;29;37377;-77
2022/01/19 10:24:57;;;;;;;67.13;36.60;;;6.20;99.90;;;;;;4845042;29;47514;-77
2022/01/19 10:27:27;;;;;;;67.77;37.53;;;6.30;99.90;;;;;;4855216;29;38049;-77
2022/01/19 10:30:03;;;;;;;79.40;38.23;;;6.20;99.90;;;;;;4842277;29;39061;-77
2022/01/19 10:32:33;;;;;;;62.03;36.53;;;6.20;99.90;;;;;;4854682;28;47343;-77
2022/01/19 10:35:20;;;;;;;65.90;38.60;;;6.20;99.90;;;;;;4859899;29;36330;-77
2022/01/19 10:37:49;;;;;;;74.87;38.10;;;6.30;99.90;;;;;;4849364;29;48774;-75
2022/01/19 10:40:18;;;;;;;66.00;36.47;;;6.30;99.90;;;;;;4854765;29;38530;-76
2022/01/19 10:42:45;;;;;;;71.97;38.77;;;6.40;99.90;;;;;;4852773;29;40451;-76
2022/01/19 10:45:13;;;;;;;73.07;40.47;;;6.30;99.90;;;;;;4845489;29;38685;-75
2022/01/19 10:47:50;;;;;;;71.03;39.03;;;6.40;99.90;;;;;;4858247;29;37775;-76
2022/01/19 10:50:31;;;;;;;76.77;39.67;;;6.40;99.90;;;;;;4843474;29;38980;-76
2022/01/19 10:53:04;;;;;;;67.47;38.43;;;6.50;99.90;;;;;;4846500;29;39731;-76
2022/01/19 10:55:42;;;;;;;63.95;36.17;;;6.50;99.90;;;;;;4845392;29;48481;-77
2022/01/19 10:58:13;;;;;;;70.37;38.93;;;6.60;99.90;;;;;;4846282;29;38416;-76
2022/01/19 11:00:48;;;;;;;68.13;38.30;;;6.70;99.90;;;;;;4859274;29;38993;-77
2022/01/19 11:03:19;;;;;;;71.70;37.80;;;6.80;99.90;;;;;;4838230;29;38545;-77
2022/01/19 11:05:47;;;;;;;64.07;37.53;;;6.90;99.90;;;;;;4846102;29;37987;-77
2022/01/19 11:08:15;;;;;;;59.00;34.60;;;7.10;99.90;;;;;;4841160;29;38142;-76
2022/01/19 11:10:47;;;;;;;60.93;36.33;;;7.20;99.90;;;;;;4847049;29;39884;-77
2022/01/19 11:13:14;;;;;;;61.42;33.88;;;7.40;99.90;;;;;;4843844;29;37066;-77
2022/01/19 11:15:43;;;;;;;59.97;33.10;;;7.60;99.90;;;;;;4844525;29;37304;-77
2022/01/19 11:18:09;;;;;;;61.70;35.30;;;7.70;99.90;;;;;;4844064;29;38997;-76
2022/01/19 11:20:45;;;;;;;56.53;33.47;;;7.90;99.90;;;;;;4844888;29;38900;-77
2022/01/19 11:23:16;;;;;;;56.63;34.23;;;8.00;99.90;;;;;;4843673;29;38677;-77
2022/01/19 11:26:07;;;;;;;60.70;34.57;;;7.90;99.90;;;;;;4840814;29;38450;-77
2022/01/19 11:28:43;;;;;;;56.93;32.70;;;7.80;99.90;;;;;;4840870;29;49038;-76
2022/01/19 11:31:11;;;;;;;55.97;35.17;;;7.90;99.90;;;;;;4846143;29;38328;-77
2022/01/19 11:33:45;;;;;;;58.50;32.13;;;7.80;99.90;;;;;;4858070;29;38163;-76
2022/01/19 11:36:31;;;;;;;57.17;33.47;;;7.80;99.90;;;;;;4837323;29;37199;-77
2022/01/19 11:39:19;;;;;;;56.50;32.97;;;7.80;99.90;;;;;;4848806;29;38858;-77
2022/01/19 11:42:03;;;;;;;56.53;32.60;;;7.80;99.90;;;;;;4859374;29;47163;-77
2022/01/19 11:44:32;;;;;;;57.23;33.30;;;7.80;99.90;;;;;;4842121;29;47511;-77
2022/01/19 11:47:21;;;;;;;58.97;33.80;;;7.70;99.90;;;;;;4843581;28;38876;-77
2022/01/19 11:50:18;;;;;;;55.13;30.97;;;7.70;99.90;;;;;;4838447;29;47193;-77
2022/01/19 11:52:46;;;;;;;59.60;32.27;;;7.80;99.90;;;;;;4843823;29;48411;-77
2022/01/19 11:55:23;;;;;;;52.70;32.33;;;7.90;99.90;;;;;;4857528;29;37494;-77
2022/01/19 11:58:10;;;;;;;53.87;32.47;;;8.00;99.90;;;;;;4861914;29;36210;-77
2022/01/19 12:00:37;;;;;;;55.90;32.83;;;7.90;99.90;;;;;;4847647;29;48622;-77
2022/01/19 12:03:16;;;;;;;58.00;31.63;;;7.80;99.90;;;;;;4845352;29;38703;-76
2022/01/19 12:05:42;;;;;;;53.37;32.07;;;7.80;99.90;;;;;;4841765;29;39175;-77
2022/01/19 12:08:38;;;;;;;53.70;31.97;;;7.70;99.90;;;;;;4856985;29;37772;-76
2022/01/19 12:11:12;;;;;;;56.50;31.07;;;7.70;99.90;;;;;;4850074;29;40549;-77
2022/01/19 12:16:25;;;;;;;49.63;30.87;;;7.70;99.90;;;;;;4855355;29;38562;-77
2022/01/19 12:19:01;;;;;;;54.83;30.10;;;7.70;99.90;;;;;;4861630;29;36804;-77
2022/01/19 12:21:55;;;;;;;54.13;30.60;;;7.90;99.90;;;;;;4846630;29;48124;-77
2022/01/19 12:24:26;;;;;;;54.67;30.17;;;7.80;99.90;;;;;;4848643;29;38482;-77
2022/01/19 12:26:59;;;;;;;51.93;30.40;;;7.80;99.90;;;;;;4860944;29;39763;-77
2022/01/19 12:29:37;;;;;;;52.17;30.23;;;7.80;99.90;;;;;;4846749;29;37630;-77
2022/01/19 12:32:06;;;;;;;53.43;29.97;;;7.70;99.90;;;;;;4851287;29;40304;-77
2022/01/19 12:34:44;;;;;;;53.17;32.03;;;7.70;99.90;;;;;;4861395;29;40304;-77
2022/01/19 12:37:12;;;;;;;56.50;30.23;;;7.60;99.90;;;;;;4845307;29;38602;-77
2022/01/19 12:39:44;;;;;;;55.73;31.33;;;7.60;99.90;;;;;;4847766;29;37554;-78
2022/01/19 12:42:28;;;;;;;54.07;30.97;;;7.60;99.90;;;;;;4845855;29;39525;-76
2022/01/19 12:44:59;;;;;;;50.30;30.93;;;7.60;99.90;;;;;;4848435;29;39080;-77
2022/01/19 12:47:28;;;;;;;52.90;29.93;;;7.60;99.90;;;;;;4848031;29;38410;-78
2022/01/19 12:49:54;;;;;;;48.73;29.63;;;7.50;99.90;;;;;;4857253;29;36716;-78
2022/01/19 12:52:23;;;;;;;56.33;31.53;;;7.50;99.90;;;;;;4845493;29;38407;-77
2022/01/19 12:54:51;;;;;;;53.33;30.70;;;7.50;99.90;;;;;;4848802;29;40003;-77
2022/01/19 12:57:17;;;;;;;48.87;28.77;;;7.50;99.90;;;;;;4839261;29;37390;-77
2022/01/19 12:59:46;;;;;;;52.93;30.20;;;7.50;99.90;;;;;;4843089;29;36485;-77
2022/01/19 13:02:15;;;;;;;52.27;30.87;;;7.50;99.90;;;;;;4857835;29;38592;-78
2022/01/19 13:04:47;;;;;;;49.80;29.70;;;7.50;99.90;;;;;;4842107;29;38698;-77
2022/01/19 13:07:17;;;;;;;57.60;30.58;;;7.60;99.90;;;;;;4842658;29;38571;-77
2022/01/19 13:12:56;;;;;;;49.90;27.20;;;7.70;99.90;;;;;;4834373;29;49056;-77
2022/01/19 13:15:25;;;;;;;46.17;26.90;;;7.80;99.90;;;;;;4844596;29;38920;-77
2022/01/19 13:17:52;;;;;;;48.27;27.53;;;7.80;99.90;;;;;;4845602;29;37355;-77
2022/01/19 13:20:23;;;;;;;45.23;25.70;;;7.90;99.90;;;;;;4845991;29;36479;-77
2022/01/19 13:22:53;;;;;;;46.00;24.87;;;7.90;99.90;;;;;;4842861;29;38868;-77
2022/01/19 13:25:22;;;;;;;46.73;26.23;;;8.00;99.90;;;;;;4845803;29;39513;-78
2022/01/19 13:28:01;;;;;;;46.27;25.93;;;7.90;99.90;;;;;;4842449;29;38053;-77
2022/01/19 13:30:32;;;;;;;45.73;24.97;;;7.80;99.90;;;;;;4838658;28;47677;-77
2022/01/19 13:33:09;;;;;;;47.70;25.97;;;7.80;99.90;;;;;;4840041;29;38550;-77
2022/01/19 13:35:36;;;;;;;40.83;24.37;;;7.80;99.90;;;;;;4844674;29;48212;-77
2022/01/19 13:38:09;;;;;;;50.50;26.03;;;7.80;99.90;;;;;;4842338;29;37650;-77
2022/01/19 13:40:36;;;;;;;43.90;25.77;;;7.80;99.90;;;;;;4842686;29;35077;-77
2022/01/19 13:43:08;;;;;;;52.70;24.80;;;7.80;99.90;;;;;;4842308;29;37598;-76
2022/01/19 13:45:48;;;;;;;48.88;25.55;;;7.80;99.90;;;;;;4843236;29;38851;-77
2022/01/19 13:48:32;;;;;;;51.73;24.90;;;7.70;99.90;;;;;;4845375;29;37398;-77
2022/01/19 13:51:03;;;;;;;50.87;25.40;;;7.70;99.90;;;;;;4845642;29;37541;-77
2022/01/19 13:53:35;;;;;;;48.00;24.70;;;7.70;99.90;;;;;;4848320;29;49995;-77
2022/01/19 13:56:04;;;;;;;49.00;24.20;;;7.70;99.90;;;;;;4840930;29;38731;-76
2022/01/19 13:58:37;;;;;;;45.33;22.80;;;7.70;99.90;;;;;;4844946;29;38064;-77
2022/01/19 14:01:12;;;;;;;46.47;22.40;;;7.70;99.90;;;;;;4840752;29;36111;-77
2022/01/19 14:04:03;;;;;;;51.67;24.00;;;7.70;99.90;;;;;;4847416;29;38823;-77
2022/01/19 14:06:32;;;;;;;52.73;25.20;;;7.60;99.90;;;;;;4842999;29;48827;-77